Time;durP1;ratioP1;P1;durP2;ratioP2;P2;SDS_P1;SDS_P2;PMS_P1;PMS_P2;Temp;Humidity;BMP_temperature;BMP_pressure;BME280_temperature;BME280_humidity;BME280_pressure;Samples;Min_cycle;Max_cycle;Signal;HPM_P1;HPM_P2
2023/07/28 00:01:19;;;;;;;2.70;1.30;;;21.10;94.30;;;23.93;63.47;100104.34;4995458;28;20220;-62
2023/07/28 00:03:46;;;;;;;1.37;1.27;;;21.10;94.30;;;23.92;63.23;100108.09;4995328;28;20617;-62
2023/07/28 00:06:14;;;;;;;1.60;1.50;;;21.10;94.20;;;23.89;62.99;100104.09;4977790;28;20544;-62
2023/07/28 00:08:41;;;;;;;1.60;1.37;;;21.00;94.10;;;23.88;62.98;100107.88;4994624;28;20216;-62
2023/07/28 00:11:12;;;;;;;1.37;1.27;;;21.10;94.20;;;23.87;63.32;100111.63;4994681;28;20215;-62
2023/07/28 00:13:39;;;;;;;1.30;1.20;;;21.00;94.10;;;23.86;63.26;100093.91;4994989;28;20645;-62
2023/07/28 00:16:07;;;;;;;1.83;1.57;;;21.00;94.10;;;23.86;62.70;100099.28;4995173;28;20588;-62
2023/07/28 00:18:35;;;;;;;1.60;1.50;;;21.00;94.10;;;23.86;63.30;100099.28;4994873;28;20200;-60
2023/07/28 00:21:05;;;;;;;1.50;1.40;;;21.00;94.10;;;23.88;62.84;100099.81;4994119;28;20212;-62
2023/07/28 00:23:32;;;;;;;2.33;1.90;;;21.00;94.00;;;23.87;62.76;100111.63;4994849;28;20188;-59
2023/07/28 00:25:59;;;;;;;2.03;1.70;;;21.00;94.00;;;23.86;62.85;100118.09;4994854;28;20227;-60
2023/07/28 00:28:27;;;;;;;1.57;1.47;;;21.00;94.00;;;23.86;62.60;100115.41;4994352;28;20657;-62
2023/07/28 00:30:54;;;;;;;2.20;2.10;;;21.00;94.10;;;23.86;62.90;100114.59;4994561;28;20212;-61
2023/07/28 00:33:21;;;;;;;2.00;1.90;;;21.00;94.10;;;23.86;62.74;100115.41;4994640;28;20192;-61
2023/07/28 00:35:49;;;;;;;2.30;2.10;;;21.00;94.10;;;23.84;62.64;100117.56;4994402;28;20207;-60
2023/07/28 00:38:16;;;;;;;2.00;1.90;;;21.00;94.20;;;23.83;63.38;100107.88;4994871;28;20604;-61
2023/07/28 00:40:43;;;;;;;2.20;2.00;;;21.00;94.10;;;23.81;63.05;100107.38;4993076;28;20239;-61
2023/07/28 00:43:10;;;;;;;2.33;2.13;;;21.00;94.20;;;23.81;63.13;100107.38;4994481;28;20295;-58
2023/07/28 00:45:39;;;;;;;1.97;1.80;;;21.00;94.20;;;23.82;62.91;100108.97;5010202;28;20276;-62
2023/07/28 00:48:13;;;;;;;2.23;2.03;;;21.00;94.30;;;23.82;63.13;100100.91;5012423;28;20246;-62
2023/07/28 00:50:43;;;;;;;2.10;1.90;;;21.00;94.30;;;23.83;63.10;100102.50;4996094;28;20222;-62
2023/07/28 00:53:11;;;;;;;2.23;2.03;;;20.90;94.20;;;23.83;62.72;100099.00;5012729;28;20687;-61
2023/07/28 00:55:38;;;;;;;2.63;2.13;;;20.90;94.30;;;23.81;63.26;100107.38;4998422;28;20279;-62
2023/07/28 00:58:05;;;;;;;4.33;2.30;;;20.90;94.20;;;23.80;63.51;100104.94;4994352;28;20213;-61
2023/07/28 01:00:32;;;;;;;2.10;2.00;;;20.90;94.30;;;23.78;62.67;100110.59;4994050;28;20243;-60
2023/07/28 01:03:01;;;;;;;1.90;1.80;;;20.90;94.20;;;23.77;62.95;100106.28;4994415;28;20246;-60
2023/07/28 01:05:41;;;;;;;2.03;1.93;;;20.90;94.20;;;23.76;63.16;100110.09;4994140;28;20192;-62
2023/07/28 01:08:19;;;;;;;2.27;2.07;;;20.90;94.30;;;23.76;63.48;100110.09;4994382;28;20199;-61
2023/07/28 01:10:46;;;;;;;3.30;2.10;;;20.90;94.30;;;23.79;63.43;100104.16;4994306;28;20624;-61
2023/07/28 01:13:13;;;;;;;2.87;2.63;;;20.90;94.60;;;23.81;62.74;100107.38;4994397;28;20212;-61
2023/07/28 01:15:40;;;;;;;3.40;3.10;;;20.90;94.20;;;23.83;63.37;100105.19;4994396;28;20250;-62
2023/07/28 01:18:09;;;;;;;3.00;2.80;;;20.90;94.20;;;23.84;62.80;100109.50;4994004;28;20194;-62
2023/07/28 01:20:39;;;;;;;2.93;2.73;;;20.90;94.20;;;23.83;63.05;100105.19;4993792;28;20302;-61
2023/07/28 01:23:17;;;;;;;3.50;3.20;;;21.00;94.20;;;23.80;62.99;100113.81;4994046;28;20275;-62
2023/07/28 01:25:55;;;;;;;3.53;3.33;;;20.90;94.10;;;23.78;63.14;100107.91;4994204;28;20192;-61
2023/07/28 01:28:24;;;;;;;3.57;3.27;;;20.90;94.20;;;23.79;62.90;100108.72;4993781;28;20302;-62
2023/07/28 01:30:52;;;;;;;3.43;3.13;;;20.90;94.20;;;23.77;62.81;100108.19;4993874;28;20209;-60
2023/07/28 01:33:19;;;;;;;4.33;3.47;;;20.90;94.20;;;23.76;62.64;100102.00;4993116;28;20279;-61
2023/07/28 01:35:46;;;;;;;3.97;3.67;;;20.90;94.20;;;23.75;63.03;100111.16;4993862;28;20287;-60
2023/07/28 01:38:14;;;;;;;3.93;3.33;;;20.90;94.30;;;23.75;63.48;100113.06;4993831;28;20219;-62
2023/07/28 01:40:41;;;;;;;2.87;2.67;;;20.90;94.30;;;23.76;63.18;100107.38;4993370;28;20298;-62
2023/07/28 01:43:08;;;;;;;3.20;3.00;;;20.90;94.30;;;23.78;63.07;100107.91;4993335;28;20204;-61
2023/07/28 01:45:36;;;;;;;3.67;3.37;;;20.90;94.30;;;23.81;62.96;100106.56;5009689;28;20282;-61
2023/07/28 01:48:04;;;;;;;3.80;3.40;;;20.90;94.40;;;23.82;62.90;100108.19;5013398;28;20219;-61
2023/07/28 01:50:31;;;;;;;3.10;2.80;;;20.90;94.40;;;23.82;63.21;100108.19;4997062;28;20215;-61
2023/07/28 01:52:58;;;;;;;4.27;3.23;;;20.90;94.30;;;23.80;62.73;100108.44;5010130;28;20230;-59
2023/07/28 01:55:27;;;;;;;3.20;2.90;;;20.90;94.30;;;23.80;63.11;100113.81;4999149;28;20231;-62
2023/07/28 01:57:57;;;;;;;3.50;3.20;;;20.90;94.20;;;23.80;62.74;100113.81;4993292;28;20267;-62
2023/07/28 02:00:25;;;;;;;3.53;3.23;;;20.90;94.20;;;23.83;63.27;100117.84;4996014;28;20220;-60
2023/07/28 02:02:55;;;;;;;3.57;3.03;;;20.90;94.30;;;23.82;62.79;100117.03;4997599;28;20223;-61
2023/07/28 02:05:22;;;;;;;3.27;3.00;;;20.90;94.30;;;23.83;62.85;100115.16;4997683;28;20218;-62
2023/07/28 02:07:49;;;;;;;3.47;3.10;;;20.90;94.30;;;23.82;62.89;100122.41;4997182;28;20216;-60
2023/07/28 02:10:16;;;;;;;2.63;2.43;;;20.90;94.40;;;23.82;62.83;100122.41;4996314;28;20219;-61
2023/07/28 02:12:43;;;;;;;3.33;2.70;;;20.90;94.30;;;23.82;62.63;100111.66;4997337;28;20282;-60
2023/07/28 02:15:11;;;;;;;4.00;3.20;;;20.90;94.30;;;23.81;62.96;100120.81;4997266;28;20239;-61
2023/07/28 02:17:38;;;;;;;3.93;3.50;;;20.90;94.20;;;23.79;62.76;100117.59;4997287;28;20223;-61
2023/07/28 02:20:12;;;;;;;4.47;4.07;;;20.90;94.20;;;23.79;63.24;100119.47;4997145;28;20212;-61
2023/07/28 02:22:39;;;;;;;4.47;4.10;;;20.90;94.30;;;23.79;62.87;100122.97;4996993;28;20203;-61
2023/07/28 02:25:07;;;;;;;3.70;3.40;;;20.90;94.30;;;23.78;62.91;100121.34;4997200;28;20195;-61
2023/07/28 02:27:34;;;;;;;4.60;4.20;;;20.90;94.30;;;23.80;63.00;100129.13;4996878;28;20239;-61
2023/07/28 02:30:02;;;;;;;5.20;4.70;;;20.90;94.30;;;23.81;62.85;100128.88;4995407;28;20262;-61
2023/07/28 02:32:30;;;;;;;4.97;4.43;;;20.90;94.40;;;23.83;63.27;100137.47;4996848;28;20200;-59
2023/07/28 02:34:58;;;;;;;6.03;5.43;;;20.90;94.30;;;23.86;63.09;100136.91;4996124;28;20262;-61
2023/07/28 02:37:26;;;;;;;5.23;4.73;;;20.90;94.30;;;23.85;63.00;100140.69;4997122;28;20548;-60
2023/07/28 02:39:53;;;;;;;4.80;4.40;;;20.90;94.40;;;23.87;62.76;100146.56;4996773;28;20326;-62
2023/07/28 02:42:20;;;;;;;6.17;5.57;;;20.90;94.40;;;23.88;63.21;100140.13;4997081;28;20242;-61
2023/07/28 02:44:47;;;;;;;6.33;5.73;;;21.00;94.50;;;23.81;63.22;100139.63;5006074;28;20695;-60
2023/07/28 02:47:14;;;;;;;6.07;5.47;;;21.00;94.40;;;23.76;63.08;100136.16;5016282;28;20730;-58
2023/07/28 02:49:43;;;;;;;5.63;5.13;;;21.00;94.50;;;23.73;63.50;100137.50;5006284;28;20654;-61
2023/07/28 02:52:10;;;;;;;5.37;4.87;;;20.90;94.50;;;23.69;63.79;100141.84;5005094;28;20210;-61
2023/07/28 02:54:38;;;;;;;5.50;5.00;;;20.90;94.50;;;23.67;63.88;100138.63;5008679;28;20224;-61
2023/07/28 02:57:06;;;;;;;4.73;4.33;;;20.90;94.50;;;23.65;63.85;100140.78;4996112;28;20291;-62
2023/07/28 02:59:33;;;;;;;4.57;4.17;;;20.90;94.50;;;23.65;63.89;100131.91;4996026;28;20208;-59
2023/07/28 03:02:00;;;;;;;5.17;4.67;;;20.90;94.50;;;23.66;63.90;100134.31;4996399;28;20740;-61
2023/07/28 03:04:27;;;;;;;4.07;3.10;;;20.90;94.70;;;23.68;64.02;100134.84;4996215;28;20641;-62
2023/07/28 03:06:54;;;;;;;5.20;4.80;;;20.90;94.70;;;23.71;64.05;100134.28;5010959;28;20220;-62
2023/07/28 03:09:22;;;;;;;3.87;3.57;;;20.90;94.70;;;23.73;63.40;100140.19;4995674;28;20216;-62
2023/07/28 03:11:50;;;;;;;4.77;4.37;;;20.90;94.70;;;23.74;63.58;100144.50;4994821;28;20594;-60
2023/07/28 03:14:17;;;;;;;4.33;3.90;;;20.90;94.70;;;23.74;63.42;100144.50;4996216;28;20219;-62
2023/07/28 03:16:44;;;;;;;5.00;4.10;;;20.90;94.70;;;23.75;63.53;100139.94;4996332;28;20226;-62
2023/07/28 03:19:11;;;;;;;4.70;4.30;;;20.90;94.70;;;23.77;63.81;100143.16;4995658;28;20290;-59
2023/07/28 03:21:38;;;;;;;3.93;3.60;;;20.90;94.70;;;23.77;63.41;100148.53;4996285;28;20283;-62
2023/07/28 03:24:06;;;;;;;4.00;3.70;;;20.90;94.70;;;23.75;63.89;100151.47;4994844;28;20192;-62
2023/07/28 03:26:33;;;;;;;3.53;3.23;;;20.90;94.70;;;23.76;63.71;100155.78;4995898;28;20200;-60
2023/07/28 03:29:02;;;;;;;3.40;3.10;;;20.90;94.80;;;23.78;63.61;100156.31;4995434;28;20239;-59
2023/07/28 03:31:29;;;;;;;3.40;3.10;;;20.90;94.80;;;23.78;63.49;100164.38;4995718;28;20634;-61
2023/07/28 03:33:56;;;;;;;3.50;3.20;;;20.90;94.80;;;23.77;63.85;100149.31;4995780;28;20200;-61
2023/07/28 03:36:23;;;;;;;3.10;2.90;;;20.90;94.90;;;23.74;63.95;100149.88;4995817;28;20192;-62
2023/07/28 03:38:50;;;;;;;2.70;2.50;;;20.90;94.90;;;23.74;64.41;100149.88;4995504;28;20220;-61
2023/07/28 03:41:17;;;;;;;3.63;3.33;;;20.90;94.90;;;23.73;64.34;100150.94;4995937;28;20192;-62
2023/07/28 03:43:45;;;;;;;3.23;2.93;;;20.90;95.00;;;23.72;64.21;100152.03;4996298;28;20302;-57
2023/07/28 03:46:13;;;;;;;2.77;2.57;;;20.90;95.00;;;23.71;64.37;100150.41;5030316;28;20310;-61
2023/07/28 03:48:40;;;;;;;1.90;1.80;;;20.90;95.00;;;23.70;64.40;100158.78;5013607;28;20556;-61
2023/07/28 03:51:07;;;;;;;1.83;1.60;;;20.90;95.00;;;23.68;64.48;100150.97;4995788;28;20354;-61
2023/07/28 03:53:35;;;;;;;1.60;1.50;;;20.90;94.90;;;23.67;64.51;100149.38;5014837;28;20198;-62
2023/07/28 03:56:03;;;;;;;2.60;1.53;;;20.90;95.00;;;23.64;64.76;100155.28;4995980;28;20246;-65
2023/07/28 03:58:30;;;;;;;2.17;2.03;;;20.90;94.90;;;23.58;64.45;100156.41;5009529;28;20283;-62
2023/07/28 04:00:57;;;;;;;2.83;2.57;;;20.90;94.80;;;23.55;64.58;100152.38;4994703;28;20215;-60
2023/07/28 04:03:25;;;;;;;3.87;3.00;;;20.80;94.80;;;23.53;64.65;100159.88;4995121;28;20604;-61
2023/07/28 04:05:52;;;;;;;3.70;3.40;;;20.90;94.90;;;23.53;64.57;100167.16;4978048;28;20208;-59
2023/07/28 04:08:19;;;;;;;3.90;3.60;;;20.90;95.00;;;23.52;64.37;100169.03;4995040;28;20692;-62
2023/07/28 04:10:46;;;;;;;3.17;2.87;;;20.80;95.00;;;23.53;64.53;100176.00;4994655;28;20779;-61
2023/07/28 04:13:13;;;;;;;4.30;3.90;;;20.80;95.00;;;23.56;64.81;100171.97;4994954;28;20192;-59
2023/07/28 04:15:40;;;;;;;3.17;2.90;;;20.80;95.10;;;23.60;64.57;100174.94;4994992;28;20223;-60
2023/07/28 04:18:07;;;;;;;5.60;4.87;;;20.90;95.10;;;23.62;64.57;100170.06;4995232;28;20184;-61
2023/07/28 04:20:36;;;;;;;6.10;5.60;;;20.90;95.10;;;23.63;64.54;100174.38;4994992;28;20306;-62
2023/07/28 04:23:03;;;;;;;6.03;5.17;;;20.90;95.10;;;23.62;64.54;100178.13;4993007;28;20291;-60
2023/07/28 04:25:30;;;;;;;4.90;4.50;;;20.90;95.10;;;23.60;64.35;100181.13;4993417;28;20203;-61
2023/07/28 04:27:57;;;;;;;5.23;4.77;;;20.90;95.10;;;23.61;64.80;100177.31;4994669;28;20303;-62
2023/07/28 04:30:24;;;;;;;4.70;4.30;;;20.90;95.10;;;23.63;64.23;100180.53;4994140;28;20542;-60
2023/07/28 04:32:51;;;;;;;6.83;6.23;;;20.90;95.00;;;23.64;64.55;100187.53;4993489;28;20199;-58
2023/07/28 04:35:18;;;;;;;6.33;5.73;;;20.90;95.00;;;23.65;64.19;100181.09;4994770;28;20226;-61
2023/07/28 04:37:47;;;;;;;6.40;5.80;;;20.90;95.00;;;23.68;64.44;100188.59;4994219;28;20283;-60
2023/07/28 04:40:14;;;;;;;6.50;5.90;;;20.90;95.00;;;23.72;64.24;100196.94;4994070;28;20214;-61
2023/07/28 04:42:43;;;;;;;6.23;5.63;;;20.90;95.10;;;23.72;63.96;100195.06;4994691;28;20219;-59
2023/07/28 04:45:10;;;;;;;5.77;5.27;;;20.90;95.00;;;23.76;64.47;100200.66;5006712;28;20209;-59
2023/07/28 04:47:37;;;;;;;6.00;5.50;;;21.00;95.10;;;23.77;64.16;100196.91;5013967;28;20652;-62
2023/07/28 04:50:05;;;;;;;5.13;4.70;;;20.90;95.00;;;23.79;63.89;100200.94;5001079;28;20608;-61
2023/07/28 04:52:32;;;;;;;6.50;5.90;;;20.90;94.90;;;23.81;64.31;100198.78;5007153;28;20309;-61
2023/07/28 04:55:01;;;;;;;6.43;5.73;;;20.90;95.00;;;23.83;64.39;100202.00;5003225;28;20206;-62
2023/07/28 04:57:28;;;;;;;5.57;5.07;;;21.00;95.10;;;23.81;63.95;100204.16;4994006;28;20207;-60
2023/07/28 04:59:55;;;;;;;4.40;4.10;;;21.00;95.10;;;23.83;64.09;100204.69;4993633;28;20659;-62
2023/07/28 05:02:22;;;;;;;4.87;4.43;;;21.00;95.10;;;23.84;64.14;100214.38;4994624;28;20220;-61
2023/07/28 05:04:49;;;;;;;4.73;3.73;;;21.00;95.00;;;23.85;63.96;100218.66;4994261;28;20200;-62
2023/07/28 05:07:16;;;;;;;4.60;4.20;;;21.00;95.00;;;23.87;63.79;100212.97;4993801;28;20226;-62
2023/07/28 05:09:44;;;;;;;5.43;4.93;;;21.00;94.90;;;23.90;64.32;100215.13;4993556;28;20762;-61
2023/07/28 05:12:13;;;;;;;4.57;4.17;;;21.00;95.00;;;23.92;63.77;100216.47;4993399;28;20224;-62
2023/07/28 05:14:40;;;;;;;3.97;3.57;;;21.00;95.00;;;23.97;63.76;100216.44;4994268;28;20595;-61
2023/07/28 05:17:07;;;;;;;4.63;4.23;;;21.00;95.00;;;24.03;63.65;100212.66;4993304;28;20227;-60
2023/07/28 05:19:35;;;;;;;5.80;5.30;;;21.10;95.10;;;24.07;64.11;100216.44;4993085;28;20669;-61
2023/07/28 05:22:02;;;;;;;4.73;3.63;;;21.10;95.10;;;24.12;64.21;100221.81;4993706;28;20188;-59
2023/07/28 05:24:29;;;;;;;6.03;5.53;;;21.20;95.10;;;24.15;63.45;100223.91;4994200;28;20196;-60
2023/07/28 05:26:56;;;;;;;4.40;4.00;;;21.20;95.10;;;24.16;63.48;100222.84;4993716;28;20187;-60
2023/07/28 05:29:24;;;;;;;4.00;3.70;;;21.20;95.00;;;24.17;63.58;100219.09;4993321;28;20246;-62
2023/07/28 05:31:51;;;;;;;3.90;3.60;;;21.20;94.90;;;24.14;63.48;100222.34;4993657;28;20238;-61
2023/07/28 05:34:18;;;;;;;3.93;3.53;;;21.30;94.90;;;24.13;63.33;100225.28;4993534;28;20575;-61
2023/07/28 05:36:45;;;;;;;3.30;3.00;;;21.30;94.90;;;24.13;63.89;100228.78;4996460;28;20230;-62
2023/07/28 05:39:12;;;;;;;3.60;3.30;;;21.20;94.80;;;24.14;63.89;100222.34;4997453;28;20315;-60
2023/07/28 05:41:39;;;;;;;4.10;3.80;;;21.30;94.90;;;24.14;63.49;100230.41;4997648;28;20355;-61
2023/07/28 05:44:07;;;;;;;4.33;3.93;;;21.20;94.70;;;24.12;63.37;100224.50;5001151;28;20290;-60
2023/07/28 05:46:35;;;;;;;4.63;3.67;;;21.30;94.70;;;24.11;63.79;100239.00;5017062;28;20719;-61
2023/07/28 05:49:02;;;;;;;4.13;3.73;;;21.20;94.60;;;24.10;63.21;100242.78;5012206;28;20234;-62
2023/07/28 05:51:29;;;;;;;3.17;2.97;;;21.20;94.70;;;24.12;63.69;100243.31;5001793;28;20613;-61
2023/07/28 05:53:57;;;;;;;3.63;3.33;;;21.30;94.80;;;24.15;63.37;100232.00;5014835;28;20187;-62
2023/07/28 05:56:24;;;;;;;4.70;4.20;;;21.30;94.80;;;24.19;63.28;100234.94;4997448;28;20607;-62
2023/07/28 05:58:51;;;;;;;6.13;5.63;;;21.30;94.70;;;24.22;63.72;100237.88;4996676;28;20227;-62
2023/07/28 06:01:18;;;;;;;5.20;4.70;;;21.30;94.70;;;24.26;63.62;100242.72;4997178;28;20537;-64
2023/07/28 06:03:47;;;;;;;7.73;6.93;;;21.30;94.70;;;24.28;63.41;100240.53;4997553;28;20278;-62
2023/07/28 06:06:14;;;;;;;8.40;6.87;;;21.30;94.70;;;24.29;63.16;100242.16;4996955;28;20200;-62
2023/07/28 06:08:41;;;;;;;7.23;6.53;;;21.30;94.60;;;24.30;62.71;100249.13;4996750;28;20247;-61
2023/07/28 06:11:08;;;;;;;8.63;7.73;;;21.40;94.60;;;24.33;62.69;100243.22;4996799;28;20291;-62
2023/07/28 06:13:35;;;;;;;10.77;9.67;;;21.40;94.70;;;24.39;62.90;100255.56;4995122;28;20230;-62
2023/07/28 06:16:02;;;;;;;21.17;18.23;;;21.40;94.70;;;24.42;63.16;100253.13;4995998;28;20219;-62
2023/07/28 06:18:29;;;;;;;10.87;9.60;;;21.40;94.70;;;24.42;62.89;100255.00;4995353;28;20298;-60
2023/07/28 06:20:58;;;;;;;8.47;7.43;;;21.40;94.50;;;24.42;62.75;100255.00;4997067;28;20246;-61
2023/07/28 06:23:25;;;;;;;9.27;8.37;;;21.50;94.50;;;24.42;62.97;100257.69;4996770;28;20501;-61
2023/07/28 06:25:54;;;;;;;9.97;9.07;;;21.50;94.50;;;24.45;62.32;100259.84;4997111;28;20735;-62
2023/07/28 06:28:21;;;;;;;9.63;8.63;;;21.50;94.50;;;24.45;62.84;100257.16;5011748;28;20275;-60
2023/07/28 06:30:54;;;;;;;8.03;7.10;;;21.50;94.40;;;24.44;62.59;100266.31;4996347;28;20207;-62
2023/07/28 06:33:21;;;;;;;8.93;8.03;;;21.50;94.40;;;24.45;62.68;100265.22;4997092;28;20516;-63
2023/07/28 06:35:48;;;;;;;10.03;9.07;;;21.50;94.30;;;24.45;62.78;100273.28;4996698;28;20224;-62
2023/07/28 06:38:17;;;;;;;10.10;9.10;;;21.50;94.30;;;24.45;62.69;100267.91;4996803;28;20278;-62
2023/07/28 06:40:44;;;;;;;10.47;8.20;;;21.50;94.30;;;24.48;62.29;100278.13;4995916;28;20212;-59
2023/07/28 06:43:11;;;;;;;9.90;8.87;;;21.50;94.30;;;24.52;62.19;100276.47;4995127;28;20271;-60
2023/07/28 06:45:38;;;;;;;10.90;9.33;;;21.60;94.40;;;24.54;62.62;100274.31;5010984;28;20199;-61
2023/07/28 06:48:05;;;;;;;10.30;9.23;;;21.60;94.40;;;24.57;62.23;100276.47;5015661;28;20196;-59
2023/07/28 06:50:32;;;;;;;11.03;8.97;;;21.60;94.40;;;24.62;62.24;100279.13;4999365;28;20216;-61
2023/07/28 06:52:59;;;;;;;9.70;8.57;;;21.60;94.40;;;24.65;62.49;100283.97;5012438;28;20235;-63
2023/07/28 06:55:27;;;;;;;10.73;8.40;;;21.60;94.30;;;24.69;62.17;100282.31;5001789;28;20224;-65
2023/07/28 06:57:54;;;;;;;10.03;8.87;;;21.70;94.30;;;24.73;62.53;100294.13;4995651;28;20196;-61
2023/07/28 07:00:21;;;;;;;8.53;7.70;;;21.70;94.30;;;24.78;62.29;100294.13;4995276;28;20214;-62
2023/07/28 07:02:50;;;;;;;10.13;9.10;;;21.70;94.30;;;24.79;62.33;100290.38;4996216;28;20302;-62
2023/07/28 07:05:17;;;;;;;10.53;9.53;;;21.70;94.20;;;24.80;61.48;100286.56;4996156;28;20196;-62
2023/07/28 07:07:44;;;;;;;11.40;10.30;;;21.80;94.10;;;24.74;61.74;100293.06;4996286;28;20192;-62
2023/07/28 07:10:11;;;;;;;13.57;11.20;;;21.80;94.00;;;24.70;61.75;100302.75;4995299;28;20246;-61
2023/07/28 07:12:39;;;;;;;11.20;10.20;;;21.80;93.90;;;24.68;61.90;100294.97;4996019;28;20192;-61
2023/07/28 07:15:08;;;;;;;10.00;9.00;;;21.80;93.90;;;24.70;62.45;100294.69;4996147;28;20224;-62
2023/07/28 07:17:35;;;;;;;12.10;10.90;;;21.80;94.00;;;24.72;61.96;100303.31;4994678;28;20204;-60
2023/07/28 07:20:02;;;;;;;12.07;10.87;;;21.80;94.00;;;24.76;61.68;100296.28;4995465;28;20219;-62
2023/07/28 07:22:29;;;;;;;10.83;9.80;;;21.80;94.00;;;24.78;62.33;100300.31;4995639;28;20231;-60
2023/07/28 07:24:56;;;;;;;12.60;11.40;;;21.80;94.10;;;24.81;62.25;100298.97;4995568;28;20269;-61
2023/07/28 07:27:24;;;;;;;12.27;11.07;;;21.80;94.00;;;24.79;61.94;100301.13;4995272;28;20227;-61
2023/07/28 07:29:52;;;;;;;11.20;10.27;;;21.80;94.00;;;24.79;61.77;100301.13;4995260;28;20247;-60
2023/07/28 07:32:19;;;;;;;13.53;12.30;;;21.80;94.00;;;24.76;62.09;100307.88;4995338;28;20198;-59
2023/07/28 07:34:46;;;;;;;13.53;12.13;;;21.90;93.90;;;24.73;61.74;100315.66;4995174;28;20195;-61
2023/07/28 07:37:14;;;;;;;12.60;11.27;;;21.80;93.80;;;24.71;62.23;100315.16;4995305;28;20223;-62
2023/07/28 07:39:43;;;;;;;13.13;11.87;;;21.80;93.90;;;24.69;62.24;100317.31;4977925;28;20627;-61
2023/07/28 07:42:14;;;;;;;14.07;12.57;;;21.80;93.90;;;24.63;62.41;100326.47;4994006;28;20342;-61
2023/07/28 07:44:41;;;;;;;15.03;11.33;;;21.80;93.80;;;24.57;61.92;100331.09;4995106;28;20195;-61
2023/07/28 07:47:14;;;;;;;14.40;11.97;;;21.80;93.80;;;24.54;62.46;100336.22;4995159;28;20223;-62
2023/07/28 07:49:42;;;;;;;13.27;11.97;;;21.70;93.90;;;24.54;62.13;100334.34;5003256;28;20227;-61
2023/07/28 07:52:10;;;;;;;13.93;11.40;;;21.80;94.00;;;24.57;62.72;100341.06;5004243;28;20249;-61
2023/07/28 07:54:37;;;;;;;15.03;13.50;;;21.80;94.00;;;24.59;62.35;100346.97;5017464;28;20290;-61
2023/07/28 07:57:05;;;;;;;15.33;13.83;;;21.70;94.10;;;24.60;61.94;100346.72;5012099;28;20289;-62
2023/07/28 07:59:32;;;;;;;15.67;13.27;;;21.80;94.10;;;24.59;62.60;100341.59;4994635;28;20572;-59
2023/07/28 08:02:02;;;;;;;14.90;13.37;;;21.70;94.00;;;24.60;62.40;100351.28;4994831;28;20192;-61
2023/07/28 08:04:31;;;;;;;17.63;12.90;;;21.80;94.10;;;24.68;62.31;100348.00;4994687;28;20211;-61
2023/07/28 08:06:59;;;;;;;15.13;13.53;;;21.70;94.20;;;24.78;62.82;100348.78;4994569;28;20207;-61
2023/07/28 08:09:27;;;;;;;15.10;13.50;;;21.80;94.30;;;24.91;62.47;100347.38;4994195;28;20290;-61
2023/07/28 08:11:54;;;;;;;13.10;11.80;;;21.80;94.30;;;25.05;61.82;100352.94;4993254;28;20318;-62
2023/07/28 08:14:21;;;;;;;14.47;12.13;;;21.90;94.40;;;25.15;62.31;100358.28;4994594;28;20283;-61
2023/07/28 08:16:48;;;;;;;12.63;11.20;;;22.00;94.30;;;25.22;61.93;100364.94;4994596;28;20278;-62
2023/07/28 08:19:16;;;;;;;13.73;10.60;;;22.10;94.20;;;25.29;61.26;100364.66;4994264;28;20303;-62
2023/07/28 08:21:44;;;;;;;13.33;11.00;;;22.20;94.50;;;25.32;61.03;100369.47;4994483;28;20637;-61
2023/07/28 08:24:11;;;;;;;10.17;9.23;;;22.20;94.00;;;25.35;61.03;100372.41;4994438;28;20196;-60
2023/07/28 08:26:39;;;;;;;11.33;10.13;;;22.30;93.90;;;25.36;61.45;100371.34;4994723;28;20196;-63
2023/07/28 08:29:06;;;;;;;11.30;10.17;;;22.30;93.70;;;25.35;60.81;100369.72;4994320;28;20767;-60
2023/07/28 08:31:33;;;;;;;10.03;9.03;;;22.40;93.60;;;25.37;60.84;100383.72;4994884;28;20196;-60
2023/07/28 08:34:00;;;;;;;10.27;9.13;;;22.40;93.70;;;25.38;60.79;100379.94;4994256;28;20203;-60
2023/07/28 08:36:27;;;;;;;9.17;7.97;;;22.40;93.60;;;25.41;60.80;100382.06;4994423;28;20668;-59
2023/07/28 08:38:56;;;;;;;10.97;8.57;;;22.40;93.60;;;25.42;60.63;100378.28;4993597;28;20234;-58
2023/07/28 08:41:23;;;;;;;9.87;8.97;;;22.40;93.40;;;25.40;60.73;100379.66;4994117;28;20275;-61
2023/07/28 08:43:51;;;;;;;10.40;9.20;;;22.50;93.50;;;25.41;61.14;100373.97;4994021;28;20219;-60
2023/07/28 08:46:18;;;;;;;10.60;9.50;;;22.50;93.40;;;25.40;60.49;100382.34;4994476;28;20278;-61
2023/07/28 08:48:45;;;;;;;13.13;10.63;;;22.40;93.20;;;25.38;61.21;100385.34;4995053;28;20270;-58
2023/07/28 08:51:14;;;;;;;9.97;9.00;;;22.50;93.30;;;25.39;60.98;100388.81;5010309;28;20215;-67
2023/07/28 08:53:41;;;;;;;10.43;9.30;;;22.50;93.30;;;25.41;60.95;100384.75;4993507;28;20753;-61
2023/07/28 08:56:09;;;;;;;10.37;8.67;;;22.50;93.40;;;25.48;61.01;100401.44;4993541;28;20195;-60
2023/07/28 08:58:37;;;;;;;8.93;8.13;;;22.50;93.40;;;25.50;60.33;100396.59;4993344;28;20199;-61
2023/07/28 09:01:04;;;;;;;10.27;8.53;;;22.50;93.30;;;25.49;60.96;100400.38;4993400;28;20311;-60
2023/07/28 09:03:33;;;;;;;9.53;8.37;;;22.50;93.20;;;25.50;60.99;100410.09;4991556;28;20208;-62
2023/07/28 09:06:02;;;;;;;9.03;8.13;;;22.50;93.60;;;25.48;60.36;100412.22;4992968;28;20231;-62
2023/07/28 09:08:31;;;;;;;10.43;8.13;;;22.60;93.30;;;25.46;61.04;100403.63;4993329;28;20627;-59
2023/07/28 09:11:04;;;;;;;9.87;8.70;;;22.60;93.30;;;25.40;60.85;100410.13;4991952;28;20318;-59
2023/07/28 09:13:41;;;;;;;11.03;9.30;;;22.60;93.10;;;25.32;60.55;100413.38;4993785;28;20203;-62
2023/07/28 09:16:17;;;;;;;9.70;8.80;;;22.50;93.10;;;25.26;61.00;100409.13;4993643;28;20183;-61
2023/07/28 09:18:45;;;;;;;11.67;9.03;;;22.50;93.10;;;25.26;61.27;100409.13;4993131;28;20180;-62
2023/07/28 09:21:17;;;;;;;10.43;9.43;;;22.50;93.20;;;25.22;61.32;100413.44;4993831;28;20215;-62
2023/07/28 09:23:45;;;;;;;12.13;9.57;;;22.50;93.20;;;25.22;61.45;100418.06;4993660;28;20220;-62
2023/07/28 09:26:13;;;;;;;10.00;9.00;;;22.40;93.20;;;25.23;61.43;100415.06;4993673;28;20948;-62
2023/07/28 09:28:42;;;;;;;9.80;8.30;;;22.40;93.30;;;25.31;61.35;100419.88;4993043;28;20279;-61
2023/07/28 09:31:10;;;;;;;8.90;8.07;;;22.40;93.50;;;25.46;60.89;100411.69;4995700;28;20298;-61
2023/07/28 09:33:46;;;;;;;10.13;8.30;;;22.50;93.80;;;25.97;61.35;100409.41;4993823;28;20214;-61
2023/07/28 09:36:20;;;;;;;10.07;9.17;;;22.60;94.30;;;26.68;60.46;100408.66;4993215;28;20186;-61
2023/07/28 09:38:51;;;;;;;10.53;8.77;;;22.80;94.60;;;27.56;58.86;100410.72;4993030;28;20189;-60
2023/07/28 09:41:20;;;;;;;8.90;7.87;;;23.20;94.60;;;27.82;57.63;100415.44;5009056;28;20294;-61
2023/07/28 09:43:50;;;;;;;7.80;7.00;;;23.60;93.80;;;27.83;57.27;100424.38;4993425;28;20237;-62
2023/07/28 09:46:20;;;;;;;8.53;7.63;;;23.80;93.20;;;27.74;56.51;100435.03;4992287;28;20629;-62
2023/07/28 09:48:55;;;;;;;8.00;7.13;;;24.00;92.50;;;27.57;56.36;100432.09;4992756;28;20194;-60
2023/07/28 09:51:29;;;;;;;6.07;5.57;;;24.10;91.60;;;27.41;56.33;100436.91;5008882;28;20246;-61
2023/07/28 09:54:04;;;;;;;6.17;5.67;;;24.10;91.20;;;27.30;55.93;100431.91;4994955;28;20263;-61
2023/07/28 09:56:32;;;;;;;6.77;5.87;;;24.10;91.50;;;27.25;56.33;100437.41;5012470;28;20737;-60
2023/07/28 09:59:12;;;;;;;6.53;5.83;;;24.10;91.00;;;27.27;56.41;100437.91;4994872;28;20203;-63
2023/07/28 10:01:40;;;;;;;6.43;5.83;;;24.10;91.00;;;27.46;56.06;100436.84;4993161;28;20235;-63
2023/07/28 10:04:07;;;;;;;6.60;5.57;;;24.10;91.10;;;27.84;55.45;100443.00;4992921;28;20206;-62
2023/07/28 10:06:36;;;;;;;7.40;6.70;;;24.20;91.10;;;28.06;55.15;100440.50;4993048;28;20278;-62
2023/07/28 10:09:05;;;;;;;7.60;5.80;;;24.30;91.20;;;28.16;54.74;100445.72;4992953;28;20653;-61
2023/07/28 10:11:32;;;;;;;6.77;4.70;;;24.50;90.90;;;28.16;54.26;100444.94;4992290;28;20211;-61
2023/07/28 10:14:01;;;;;;;6.23;5.50;;;24.60;90.50;;;28.84;54.31;100445.78;4993473;28;20192;-62